CST,Max TemperatureF,Mean TemperatureF,Min TemperatureF,Max Dew PointF,MeanDew PointF,Min DewpointF,Max Humidity, Mean Humidity, Min Humidity, Max Sea Level PressureIn, Mean Sea Level PressureIn, Min Sea Level PressureIn, Max VisibilityMiles, Mean VisibilityMiles, Min VisibilityMiles, Max Wind SpeedMPH, Mean Wind SpeedMPH, Max Gust SpeedMPH,PrecipitationIn, CloudCover, Events, WindDirDegrees
2012-12-1,73,58,42,27,22,18,46,28,12,30.04,29.97,29.93,10,10,5,25,12,31,0.00,0,,273
2012-12-2,77,55,33,30,21,16,56,33,11,30.07,30.00,29.92,10,10,10,18,8,26,0.00,0,,228
2012-12-3,73,57,41,43,31,23,81,41,19,30.12,29.95,29.87,10,10,4,26,13,32,0.00,0,,272
2012-12-4,59,47,35,36,24,12,81,42,17,30.37,30.29,30.12,10,10,10,14,8,17,0.00,0,,51
2012-12-5,62,47,32,28,22,14,57,39,22,30.31,30.13,29.92,10,10,10,18,6,24,0.00,0,,203
2012-12-6,69,54,39,32,30,27,65,41,24,29.92,29.86,29.81,10,10,10,16,10,21,0.00,0,,340
2012-12-7,59,44,30,32,28,23,81,58,33,29.92,29.86,29.79,10,10,7,10,7,,0.00,0,,273
2012-12-8,62,46,30,41,31,23,100,61,27,29.91,29.83,29.72,10,9,0,15,8,17,0.00,1,Fog,188
2012-12-9,46,35,24,34,18,5,86,49,31,30.19,29.96,29.74,10,9,1,25,14,34,0.00,2,Snow,9
2012-12-10,37,24,10,19,12,5,80,59,36,30.18,30.06,29.94,10,10,10,14,8,17,0.00,0,,282
2012-12-11,48,32,15,19,12,7,80,51,20,30.10,30.02,29.93,10,10,5,10,4,,0.00,0,,302
2012-12-12,60,42,24,18,12,9,59,36,13,30.09,30.04,29.98,10,10,7,23,11,31,0.00,0,,213
2012-12-13,64,44,23,43,20,9,87,44,19,30.12,30.06,30.01,10,10,10,14,8,20,0.00,0,,223
2012-12-14,62,52,42,50,42,30,93,74,55,30.04,29.84,29.60,10,9,2,32,17,47,0.01,6,Rain-Thunderstorm,206
2012-12-15,55,46,37,32,30,27,75,58,35,29.88,29.83,29.80,10,10,10,31,19,40,0.00,0,,254
2012-12-16,55,42,30,34,29,21,93,58,33,29.85,29.79,29.74,10,10,10,30,14,40,0.00,0,,270
2012-12-17,59,44,30,27,22,18,69,48,23,29.89,29.85,29.78,10,10,7,22,15,25,0.00,0,,278
2012-12-18,62,46,30,32,27,23,86,53,22,29.86,29.79,29.70,10,10,10,16,9,22,0.00,0,,261
2012-12-19,68,49,30,32,24,10,65,45,19,30.11,29.71,29.53,10,8,1,38,13,52,0.01,3,,268
2012-12-20,50,36,21,16,6,1,58,35,15,30.41,30.32,30.13,10,10,10,24,14,29,0.00,0,,291
2012-12-21,59,40,21,10,3,-9,54,29,6,30.36,30.28,30.19,10,10,10,16,9,18,0.00,0,,236
2012-12-22,60,42,24,14,9,5,46,29,14,30.19,30.05,29.95,10,10,10,15,8,16,0.00,0,,242
2012-12-23,69,50,30,25,13,1,60,32,7,29.99,29.92,29.84,10,9,3,25,11,30,0.00,1,,298
2012-12-24,50,38,26,23,17,9,60,45,34,29.98,29.85,29.68,10,10,10,14,6,,0.00,0,,130
2012-12-25,30,24,17,21,15,10,80,70,59,30.19,29.95,29.65,10,9,1,32,18,43,0.00,6,Snow,17
2012-12-26,35,25,15,19,13,10,79,65,41,30.20,30.04,29.85,10,10,10,15,8,17,0.00,0,,218
2012-12-27,46,32,17,23,18,12,80,62,37,29.86,29.78,29.70,10,10,10,15,7,,0.00,0,,228
2012-12-28,35,26,17,19,15,10,86,65,41,30.18,30.00,29.84,10,10,5,18,10,24,0.00,2,,356
2012-12-29,46,30,15,23,13,10,86,56,25,30.35,30.27,30.18,10,10,10,12,7,16,0.00,0,,240
2012-12-30,39,34,28,27,15,12,70,46,36,30.24,30.10,29.98,10,10,5,20,10,29,0.00,2,Rain,188
2012-12-31,50,39,28,36,32,23,100,87,58,30.05,29.95,29.87,10,7,1,18,9,22,0.02,5,Rain,273